Klik op de webcam foto voor een grotere versieKlik op de webcam foto voor een grotere versie
Of klik hier voor
de webcam video


Weerstation
Wilsele-Leuven:Website of another weatherstation



Het weer levert geen direct gevaar op.    Er zijn geen waarschuwingen afgegeven.

Nabijgelegen vliegvelden - METAR rapporten

   
EBBR - Vaartkom-Leuven
Gewijzigd: 06-04-2020 04:20
Helder    Wind: Zuiden 17 km/h
Helder
Wind: Wind: Zuiden 17 km/h
Temperatuur: 13°C
Dauwpunt: 1°C
Vochtigheid: 44%
Barometer: 1015 hPa
Zicht: meer dan 10 km
Bewolking: Helder
EBBR 060220Z 17009KT CAVOK 13/01 Q1015 NOSIG
EBAW - Antwerp
Gewijzigd: 06-04-2020 04:20
Helder    Wind: ZO 7 km/h
Helder
Wind: Wind: ZO 7 km/h
Temperatuur: 7°C
Voelt als: 6°C
Dauwpunt: 0°C
Vochtigheid: 61%
Barometer: 1015 hPa
Zicht: meer dan 10 km
Bewolking: Helder
EBAW 060220Z AUTO 13004KT CAVOK 07/00 Q1015
EBLG - Liège
Gewijzigd: 06-04-2020 04:20
Helder    Wind: ZZO 7 km/h
Helder
Wind: Wind: ZZO 7 km/h
Temperatuur: 11°C
Dauwpunt: 0°C
Vochtigheid: 47%
Barometer: 1017 hPa
Zicht: meer dan 10 km
Bewolking: Helder
EBLG 060220Z 15004KT 120V210 CAVOK 11/00 Q1017 NOSIG
EBCV - Mons/Bergen
Gewijzigd: 06-04-2020 04:25
Helder    Wind: ZZO 15 km/h
Helder
Wind: Wind: ZZO 15 km/h
Temperatuur: 13°C
Dauwpunt: 2°C
Vochtigheid: 47%
Barometer: 1015 hPa
Bewolking: Helder
Zicht: meer dan 10 km
Bewolking: Helder
EBCV 060225Z AUTO 15008KT 9999 NCD 13/02 Q1015 BLU
EHBK - Maastricht
Gewijzigd: 06-04-2020 04:25
Helder    Wind: Zuiden 17 km/h
Helder
Wind: Wind: Zuiden 17 km/h
Temperatuur: 13°C
Dauwpunt: 1°C
Vochtigheid: 44%
Barometer: 1016 hPa
Bewolking: Helder
Zicht: meer dan 10 km
Bewolking: Helder
EHBK 060225Z AUTO 17009KT 9999 NCD 13/01 Q1016
ELLX - Luxemburg
Gewijzigd: 06-04-2020 04:20
Helder    Wind: Zuiden 7 km/h
Helder
Wind: Wind: Zuiden 7 km/h
Temperatuur: 10°C
Voelt als: 9°C
Dauwpunt: 0°C
Vochtigheid: 50%
Barometer: 1018 hPa
Bewolking: Helder
Zicht: meer dan 10 km
Bewolking: Helder
ELLX 060220Z AUTO 18004KT 9999 NCD 10/M00 Q1018 NOSIG
EBOS - Oostende
Gewijzigd: 06-04-2020 04:20
Helder    Wind: ZZO 17 km/h
Helder
Wind: Wind: ZZO 17 km/h
Temperatuur: 8°C
Voelt als: 5°C
Dauwpunt: 3°C
Vochtigheid: 71%
Barometer: 1013 hPa
Zicht: meer dan 10 km
Bewolking: Helder
EBOS 060220Z 15009KT CAVOK 08/03 Q1013 NOSIG
  

Script ontwikkeld door  Saratoga-weather.org Aangepast voor de template door  Weerstation Leuven

U vindt ons ook hier:

ambientweather.net/

UK Metoffice

WeatherCloud

European Weather Network

Weather Underground

Bernelux Weather Network

AWEKAS

WeatherlinkIP

Citizen Weather Observer Program (CWOP)

HAMweather, WeatherForYou, PWS Weather

Apparatuur in gebruik:

Weer-station
Davis VUE

Weer-programma
Meteobridge

Weer-computer
Nano-SD

Webleverancier
Robohost

Davis VUE

Meteobridge

Nano-SD

Robohost